sensor_id;sensor_type;location;lat;lon;timestamp;P1;durP1;ratioP1;P2;durP2;ratioP2
36923;SDS011;22841;50.252;18.688;2023-04-24T00:01:15;51.97;;;26.25;;
36923;SDS011;22841;50.252;18.688;2023-04-24T00:03:42;48.13;;;25.38;;
36923;SDS011;22841;50.252;18.688;2023-04-24T00:06:08;55.03;;;25.88;;
36923;SDS011;22841;50.252;18.688;2023-04-24T00:08:35;49.63;;;26.58;;
36923;SDS011;22841;50.252;18.688;2023-04-24T00:11:01;51.50;;;26.20;;
36923;SDS011;22841;50.252;18.688;2023-04-24T00:13:27;52.10;;;27.20;;
36923;SDS011;22841;50.252;18.688;2023-04-24T00:15:54;51.53;;;26.75;;
36923;SDS011;22841;50.252;18.688;2023-04-24T00:18:21;48.90;;;26.73;;
36923;SDS011;22841;50.252;18.688;2023-04-24T00:20:47;44.30;;;25.02;;
36923;SDS011;22841;50.252;18.688;2023-04-24T00:23:13;50.50;;;24.88;;
36923;SDS011;22841;50.252;18.688;2023-04-24T00:25:39;41.65;;;24.60;;
36923;SDS011;22841;50.252;18.688;2023-04-24T00:28:05;48.33;;;25.65;;
36923;SDS011;22841;50.252;18.688;2023-04-24T00:30:31;44.63;;;24.95;;
36923;SDS011;22841;50.252;18.688;2023-04-24T00:32:57;47.30;;;24.77;;
36923;SDS011;22841;50.252;18.688;2023-04-24T00:35:23;48.95;;;25.30;;
36923;SDS011;22841;50.252;18.688;2023-04-24T00:37:50;46.85;;;25.40;;
36923;SDS011;22841;50.252;18.688;2023-04-24T00:40:16;45.90;;;26.02;;
36923;SDS011;22841;50.252;18.688;2023-04-24T00:42:42;48.45;;;26.13;;
36923;SDS011;22841;50.252;18.688;2023-04-24T00:45:09;48.35;;;25.88;;
36923;SDS011;22841;50.252;18.688;2023-04-24T00:47:35;51.15;;;24.73;;
36923;SDS011;22841;50.252;18.688;2023-04-24T00:50:02;51.53;;;26.45;;
36923;SDS011;22841;50.252;18.688;2023-04-24T00:52:29;50.60;;;26.20;;
36923;SDS011;22841;50.252;18.688;2023-04-24T00:54:58;38.15;;;24.13;;
36923;SDS011;22841;50.252;18.688;2023-04-24T00:57:24;47.72;;;25.42;;
36923;SDS011;22841;50.252;18.688;2023-04-24T00:59:51;40.08;;;23.15;;
36923;SDS011;22841;50.252;18.688;2023-04-24T01:02:17;43.38;;;25.80;;
36923;SDS011;22841;50.252;18.688;2023-04-24T01:04:44;45.08;;;26.02;;
36923;SDS011;22841;50.252;18.688;2023-04-24T01:07:10;42.97;;;23.30;;
36923;SDS011;22841;50.252;18.688;2023-04-24T01:09:37;41.08;;;23.83;;
36923;SDS011;22841;50.252;18.688;2023-04-24T01:12:09;38.63;;;22.88;;
36923;SDS011;22841;50.252;18.688;2023-04-24T01:14:35;39.47;;;23.65;;
36923;SDS011;22841;50.252;18.688;2023-04-24T01:17:02;42.13;;;23.15;;
36923;SDS011;22841;50.252;18.688;2023-04-24T01:19:28;40.28;;;22.90;;
36923;SDS011;22841;50.252;18.688;2023-04-24T01:21:54;41.55;;;21.85;;
36923;SDS011;22841;50.252;18.688;2023-04-24T01:24:23;38.50;;;21.02;;
36923;SDS011;22841;50.252;18.688;2023-04-24T01:26:50;51.05;;;21.40;;
36923;SDS011;22841;50.252;18.688;2023-04-24T01:29:16;47.45;;;20.35;;
36923;SDS011;22841;50.252;18.688;2023-04-24T01:31:42;42.75;;;20.92;;
36923;SDS011;22841;50.252;18.688;2023-04-24T01:34:08;45.55;;;20.00;;
36923;SDS011;22841;50.252;18.688;2023-04-24T01:36:34;40.22;;;21.00;;
36923;SDS011;22841;50.252;18.688;2023-04-24T01:39:01;39.88;;;19.00;;
36923;SDS011;22841;50.252;18.688;2023-04-24T01:41:29;39.35;;;18.40;;
36923;SDS011;22841;50.252;18.688;2023-04-24T01:43:56;37.53;;;19.08;;
36923;SDS011;22841;50.252;18.688;2023-04-24T01:46:24;31.55;;;18.67;;
36923;SDS011;22841;50.252;18.688;2023-04-24T01:48:50;28.65;;;18.02;;
36923;SDS011;22841;50.252;18.688;2023-04-24T01:51:17;36.33;;;19.30;;
36923;SDS011;22841;50.252;18.688;2023-04-24T01:53:43;31.60;;;18.65;;
36923;SDS011;22841;50.252;18.688;2023-04-24T01:56:10;38.63;;;17.75;;
36923;SDS011;22841;50.252;18.688;2023-04-24T01:58:36;31.63;;;19.13;;
36923;SDS011;22841;50.252;18.688;2023-04-24T02:01:02;30.38;;;17.65;;
36923;SDS011;22841;50.252;18.688;2023-04-24T02:03:28;31.77;;;18.40;;
36923;SDS011;22841;50.252;18.688;2023-04-24T02:05:54;29.85;;;18.30;;
36923;SDS011;22841;50.252;18.688;2023-04-24T02:08:21;28.60;;;17.95;;
36923;SDS011;22841;50.252;18.688;2023-04-24T02:10:47;29.42;;;18.45;;
36923;SDS011;22841;50.252;18.688;2023-04-24T02:13:13;28.70;;;16.98;;
36923;SDS011;22841;50.252;18.688;2023-04-24T02:15:39;33.55;;;17.05;;
36923;SDS011;22841;50.252;18.688;2023-04-24T02:18:05;27.55;;;16.35;;
36923;SDS011;22841;50.252;18.688;2023-04-24T02:20:32;27.58;;;16.45;;
36923;SDS011;22841;50.252;18.688;2023-04-24T02:22:59;27.52;;;15.30;;
36923;SDS011;22841;50.252;18.688;2023-04-24T02:25:25;27.77;;;16.90;;
36923;SDS011;22841;50.252;18.688;2023-04-24T02:27:51;27.33;;;16.50;;
36923;SDS011;22841;50.252;18.688;2023-04-24T02:30:17;27.02;;;16.95;;
36923;SDS011;22841;50.252;18.688;2023-04-24T02:32:43;30.20;;;17.33;;
36923;SDS011;22841;50.252;18.688;2023-04-24T02:35:09;29.75;;;17.02;;
36923;SDS011;22841;50.252;18.688;2023-04-24T02:37:35;26.27;;;15.90;;
36923;SDS011;22841;50.252;18.688;2023-04-24T02:40:02;30.52;;;17.35;;
36923;SDS011;22841;50.252;18.688;2023-04-24T02:42:28;31.13;;;17.25;;
36923;SDS011;22841;50.252;18.688;2023-04-24T02:44:54;29.58;;;17.20;;
36923;SDS011;22841;50.252;18.688;2023-04-24T02:47:20;26.90;;;16.60;;
36923;SDS011;22841;50.252;18.688;2023-04-24T02:49:46;30.30;;;17.63;;
36923;SDS011;22841;50.252;18.688;2023-04-24T02:52:12;27.05;;;16.33;;
36923;SDS011;22841;50.252;18.688;2023-04-24T02:54:38;29.02;;;17.92;;
36923;SDS011;22841;50.252;18.688;2023-04-24T02:57:04;27.80;;;16.95;;
36923;SDS011;22841;50.252;18.688;2023-04-24T02:59:31;27.65;;;17.98;;
36923;SDS011;22841;50.252;18.688;2023-04-24T03:01:57;29.95;;;17.98;;
36923;SDS011;22841;50.252;18.688;2023-04-24T03:04:23;30.60;;;15.43;;
36923;SDS011;22841;50.252;18.688;2023-04-24T03:06:49;28.33;;;15.93;;
36923;SDS011;22841;50.252;18.688;2023-04-24T03:09:18;27.80;;;17.35;;
36923;SDS011;22841;50.252;18.688;2023-04-24T03:11:44;31.60;;;16.20;;
36923;SDS011;22841;50.252;18.688;2023-04-24T03:14:10;22.98;;;15.23;;
36923;SDS011;22841;50.252;18.688;2023-04-24T03:16:36;26.08;;;15.38;;
36923;SDS011;22841;50.252;18.688;2023-04-24T03:19:02;29.92;;;15.82;;
36923;SDS011;22841;50.252;18.688;2023-04-24T03:21:28;27.23;;;15.95;;
36923;SDS011;22841;50.252;18.688;2023-04-24T03:23:55;29.48;;;16.67;;
36923;SDS011;22841;50.252;18.688;2023-04-24T03:26:21;23.63;;;15.63;;
36923;SDS011;22841;50.252;18.688;2023-04-24T03:28:47;24.92;;;15.93;;
36923;SDS011;22841;50.252;18.688;2023-04-24T03:31:13;26.95;;;17.15;;
36923;SDS011;22841;50.252;18.688;2023-04-24T03:33:40;27.85;;;15.73;;
36923;SDS011;22841;50.252;18.688;2023-04-24T03:36:06;27.88;;;16.40;;
36923;SDS011;22841;50.252;18.688;2023-04-24T03:38:33;30.17;;;16.33;;
36923;SDS011;22841;50.252;18.688;2023-04-24T03:40:59;28.98;;;16.58;;
36923;SDS011;22841;50.252;18.688;2023-04-24T03:43:25;28.33;;;16.55;;
36923;SDS011;22841;50.252;18.688;2023-04-24T03:45:52;25.98;;;14.68;;
36923;SDS011;22841;50.252;18.688;2023-04-24T03:48:18;22.20;;;13.77;;
36923;SDS011;22841;50.252;18.688;2023-04-24T03:50:44;23.60;;;14.65;;
36923;SDS011;22841;50.252;18.688;2023-04-24T03:53:11;23.67;;;13.23;;
36923;SDS011;22841;50.252;18.688;2023-04-24T03:55:37;26.20;;;13.90;;
36923;SDS011;22841;50.252;18.688;2023-04-24T03:58:03;24.63;;;13.73;;
36923;SDS011;22841;50.252;18.688;2023-04-24T04:00:29;21.95;;;14.15;;
36923;SDS011;22841;50.252;18.688;2023-04-24T04:02:58;26.55;;;13.60;;
36923;SDS011;22841;50.252;18.688;2023-04-24T04:05:24;23.70;;;13.68;;
36923;SDS011;22841;50.252;18.688;2023-04-24T04:07:50;24.27;;;13.50;;
36923;SDS011;22841;50.252;18.688;2023-04-24T04:10:16;26.20;;;14.48;;
36923;SDS011;22841;50.252;18.688;2023-04-24T04:12:43;22.27;;;12.95;;
36923;SDS011;22841;50.252;18.688;2023-04-24T04:15:09;25.17;;;14.57;;
36923;SDS011;22841;50.252;18.688;2023-04-24T04:17:35;24.42;;;13.85;;
36923;SDS011;22841;50.252;18.688;2023-04-24T04:20:03;22.77;;;13.23;;
36923;SDS011;22841;50.252;18.688;2023-04-24T04:22:35;29.25;;;14.50;;
36923;SDS011;22841;50.252;18.688;2023-04-24T04:25:02;28.75;;;13.43;;
36923;SDS011;22841;50.252;18.688;2023-04-24T04:27:29;20.85;;;13.13;;
36923;SDS011;22841;50.252;18.688;2023-04-24T04:29:58;29.27;;;14.35;;
36923;SDS011;22841;50.252;18.688;2023-04-24T04:32:28;24.92;;;13.05;;
36923;SDS011;22841;50.252;18.688;2023-04-24T04:34:54;20.65;;;11.93;;
36923;SDS011;22841;50.252;18.688;2023-04-24T04:37:20;21.85;;;12.68;;
36923;SDS011;22841;50.252;18.688;2023-04-24T04:39:47;27.23;;;12.45;;
36923;SDS011;22841;50.252;18.688;2023-04-24T04:42:13;26.25;;;12.77;;
36923;SDS011;22841;50.252;18.688;2023-04-24T04:44:39;20.92;;;12.40;;
36923;SDS011;22841;50.252;18.688;2023-04-24T04:47:05;17.73;;;12.18;;
36923;SDS011;22841;50.252;18.688;2023-04-24T04:49:31;21.98;;;12.00;;
36923;SDS011;22841;50.252;18.688;2023-04-24T04:51:57;27.13;;;11.77;;
36923;SDS011;22841;50.252;18.688;2023-04-24T04:54:24;19.80;;;11.18;;
36923;SDS011;22841;50.252;18.688;2023-04-24T04:56:50;23.45;;;12.20;;
36923;SDS011;22841;50.252;18.688;2023-04-24T04:59:16;19.30;;;11.05;;
36923;SDS011;22841;50.252;18.688;2023-04-24T05:01:42;55.33;;;13.70;;
36923;SDS011;22841;50.252;18.688;2023-04-24T05:04:08;30.00;;;11.60;;
36923;SDS011;22841;50.252;18.688;2023-04-24T05:06:34;42.83;;;12.07;;
36923;SDS011;22841;50.252;18.688;2023-04-24T05:09:01;24.30;;;11.18;;
36923;SDS011;22841;50.252;18.688;2023-04-24T05:11:27;28.15;;;11.85;;
36923;SDS011;22841;50.252;18.688;2023-04-24T05:13:53;31.75;;;11.48;;
36923;SDS011;22841;50.252;18.688;2023-04-24T05:16:19;25.95;;;11.98;;
36923;SDS011;22841;50.252;18.688;2023-04-24T05:18:45;20.58;;;10.70;;
36923;SDS011;22841;50.252;18.688;2023-04-24T05:21:11;34.25;;;12.82;;
36923;SDS011;22841;50.252;18.688;2023-04-24T05:23:37;26.38;;;12.25;;
36923;SDS011;22841;50.252;18.688;2023-04-24T05:26:03;27.05;;;12.13;;
36923;SDS011;22841;50.252;18.688;2023-04-24T05:28:29;21.73;;;11.85;;
36923;SDS011;22841;50.252;18.688;2023-04-24T05:30:55;25.50;;;10.63;;
36923;SDS011;22841;50.252;18.688;2023-04-24T05:33:21;20.73;;;11.40;;
36923;SDS011;22841;50.252;18.688;2023-04-24T05:35:48;18.33;;;10.15;;
36923;SDS011;22841;50.252;18.688;2023-04-24T05:38:14;45.17;;;10.77;;
36923;SDS011;22841;50.252;18.688;2023-04-24T05:40:43;24.15;;;10.90;;
36923;SDS011;22841;50.252;18.688;2023-04-24T05:43:09;94.93;;;13.85;;
36923;SDS011;22841;50.252;18.688;2023-04-24T05:45:35;18.98;;;10.40;;
36923;SDS011;22841;50.252;18.688;2023-04-24T05:48:01;30.85;;;10.57;;
36923;SDS011;22841;50.252;18.688;2023-04-24T05:50:28;43.60;;;12.05;;
36923;SDS011;22841;50.252;18.688;2023-04-24T05:52:54;22.65;;;10.50;;
36923;SDS011;22841;50.252;18.688;2023-04-24T05:55:21;53.53;;;11.73;;
36923;SDS011;22841;50.252;18.688;2023-04-24T05:57:47;188.57;;;17.83;;
36923;SDS011;22841;50.252;18.688;2023-04-24T06:00:14;16.83;;;9.73;;
36923;SDS011;22841;50.252;18.688;2023-04-24T06:02:40;24.50;;;10.00;;
36923;SDS011;22841;50.252;18.688;2023-04-24T06:05:06;21.65;;;9.77;;
36923;SDS011;22841;50.252;18.688;2023-04-24T06:07:33;22.83;;;9.70;;
36923;SDS011;22841;50.252;18.688;2023-04-24T06:10:00;18.75;;;8.55;;
36923;SDS011;22841;50.252;18.688;2023-04-24T06:12:26;16.33;;;9.20;;
36923;SDS011;22841;50.252;18.688;2023-04-24T06:14:52;39.20;;;9.70;;
36923;SDS011;22841;50.252;18.688;2023-04-24T06:17:19;17.00;;;9.27;;
36923;SDS011;22841;50.252;18.688;2023-04-24T06:19:46;14.35;;;8.45;;
36923;SDS011;22841;50.252;18.688;2023-04-24T06:22:12;15.48;;;8.75;;
36923;SDS011;22841;50.252;18.688;2023-04-24T06:24:42;14.30;;;8.02;;
36923;SDS011;22841;50.252;18.688;2023-04-24T06:27:08;17.05;;;8.10;;
36923;SDS011;22841;50.252;18.688;2023-04-24T06:29:35;15.38;;;7.85;;
36923;SDS011;22841;50.252;18.688;2023-04-24T06:32:01;12.85;;;7.38;;
36923;SDS011;22841;50.252;18.688;2023-04-24T06:34:28;14.07;;;7.95;;
36923;SDS011;22841;50.252;18.688;2023-04-24T06:36:55;25.33;;;8.43;;
36923;SDS011;22841;50.252;18.688;2023-04-24T06:39:21;12.98;;;8.65;;
36923;SDS011;22841;50.252;18.688;2023-04-24T06:41:47;16.08;;;8.32;;
36923;SDS011;22841;50.252;18.688;2023-04-24T06:44:13;12.30;;;7.18;;
36923;SDS011;22841;50.252;18.688;2023-04-24T06:46:40;7.95;;;6.40;;
36923;SDS011;22841;50.252;18.688;2023-04-24T06:49:06;18.25;;;6.88;;
36923;SDS011;22841;50.252;18.688;2023-04-24T06:51:32;17.40;;;6.35;;
36923;SDS011;22841;50.252;18.688;2023-04-24T06:53:59;12.43;;;6.10;;
36923;SDS011;22841;50.252;18.688;2023-04-24T06:56:25;10.02;;;5.35;;
36923;SDS011;22841;50.252;18.688;2023-04-24T06:58:51;9.50;;;5.70;;
36923;SDS011;22841;50.252;18.688;2023-04-24T07:01:18;6.65;;;4.65;;
36923;SDS011;22841;50.252;18.688;2023-04-24T07:03:45;8.73;;;5.10;;
36923;SDS011;22841;50.252;18.688;2023-04-24T07:06:11;12.07;;;4.65;;
36923;SDS011;22841;50.252;18.688;2023-04-24T07:08:38;11.70;;;4.85;;
36923;SDS011;22841;50.252;18.688;2023-04-24T07:11:04;6.57;;;4.60;;
36923;SDS011;22841;50.252;18.688;2023-04-24T07:13:31;14.52;;;5.13;;
36923;SDS011;22841;50.252;18.688;2023-04-24T07:15:57;30.35;;;6.70;;
36923;SDS011;22841;50.252;18.688;2023-04-24T07:18:23;12.02;;;5.40;;
36923;SDS011;22841;50.252;18.688;2023-04-24T07:20:49;15.05;;;5.55;;
36923;SDS011;22841;50.252;18.688;2023-04-24T07:23:18;10.70;;;5.03;;
36923;SDS011;22841;50.252;18.688;2023-04-24T07:25:45;12.48;;;5.70;;
36923;SDS011;22841;50.252;18.688;2023-04-24T07:28:11;14.65;;;5.65;;
36923;SDS011;22841;50.252;18.688;2023-04-24T07:30:37;12.98;;;5.78;;
36923;SDS011;22841;50.252;18.688;2023-04-24T07:33:03;7.35;;;5.20;;
36923;SDS011;22841;50.252;18.688;2023-04-24T07:35:29;9.90;;;4.65;;
36923;SDS011;22841;50.252;18.688;2023-04-24T07:37:55;9.95;;;5.35;;
36923;SDS011;22841;50.252;18.688;2023-04-24T07:40:21;16.38;;;5.57;;
36923;SDS011;22841;50.252;18.688;2023-04-24T07:42:48;17.15;;;5.70;;
36923;SDS011;22841;50.252;18.688;2023-04-24T07:45:14;9.13;;;6.00;;
36923;SDS011;22841;50.252;18.688;2023-04-24T07:47:41;9.23;;;5.20;;
36923;SDS011;22841;50.252;18.688;2023-04-24T07:50:09;14.13;;;6.00;;
36923;SDS011;22841;50.252;18.688;2023-04-24T07:52:35;10.25;;;5.50;;
36923;SDS011;22841;50.252;18.688;2023-04-24T07:55:01;10.32;;;5.07;;
36923;SDS011;22841;50.252;18.688;2023-04-24T07:57:28;11.68;;;6.60;;
36923;SDS011;22841;50.252;18.688;2023-04-24T07:59:54;11.07;;;5.38;;
36923;SDS011;22841;50.252;18.688;2023-04-24T08:02:20;8.13;;;5.07;;
36923;SDS011;22841;50.252;18.688;2023-04-24T08:04:54;8.40;;;5.53;;
36923;SDS011;22841;50.252;18.688;2023-04-24T08:07:21;7.78;;;5.07;;
36923;SDS011;22841;50.252;18.688;2023-04-24T08:09:47;7.80;;;5.35;;
36923;SDS011;22841;50.252;18.688;2023-04-24T08:12:13;5.53;;;4.85;;
36923;SDS011;22841;50.252;18.688;2023-04-24T08:14:39;9.77;;;5.13;;
36923;SDS011;22841;50.252;18.688;2023-04-24T08:17:05;7.32;;;4.60;;
36923;SDS011;22841;50.252;18.688;2023-04-24T08:19:31;11.25;;;5.05;;
36923;SDS011;22841;50.252;18.688;2023-04-24T08:21:57;9.45;;;4.47;;
36923;SDS011;22841;50.252;18.688;2023-04-24T08:24:23;6.93;;;5.32;;
36923;SDS011;22841;50.252;18.688;2023-04-24T08:26:49;7.93;;;4.53;;
36923;SDS011;22841;50.252;18.688;2023-04-24T08:29:19;8.15;;;4.38;;
36923;SDS011;22841;50.252;18.688;2023-04-24T08:31:46;9.35;;;4.53;;
36923;SDS011;22841;50.252;18.688;2023-04-24T08:34:12;6.65;;;4.68;;
36923;SDS011;22841;50.252;18.688;2023-04-24T08:36:38;13.52;;;4.97;;
36923;SDS011;22841;50.252;18.688;2023-04-24T08:39:06;9.00;;;4.75;;
36923;SDS011;22841;50.252;18.688;2023-04-24T08:41:33;11.05;;;5.60;;
36923;SDS011;22841;50.252;18.688;2023-04-24T08:44:00;10.75;;;5.28;;
36923;SDS011;22841;50.252;18.688;2023-04-24T08:46:27;8.40;;;5.03;;
36923;SDS011;22841;50.252;18.688;2023-04-24T08:48:55;12.05;;;4.63;;
36923;SDS011;22841;50.252;18.688;2023-04-24T08:51:22;9.93;;;5.20;;
36923;SDS011;22841;50.252;18.688;2023-04-24T08:53:51;8.80;;;4.50;;
36923;SDS011;22841;50.252;18.688;2023-04-24T08:56:21;10.98;;;5.22;;
36923;SDS011;22841;50.252;18.688;2023-04-24T08:58:51;10.40;;;4.68;;
36923;SDS011;22841;50.252;18.688;2023-04-24T09:01:19;10.73;;;4.40;;
36923;SDS011;22841;50.252;18.688;2023-04-24T09:03:49;6.68;;;4.35;;
36923;SDS011;22841;50.252;18.688;2023-04-24T09:06:16;8.18;;;4.82;;
36923;SDS011;22841;50.252;18.688;2023-04-24T09:08:45;9.55;;;4.47;;
36923;SDS011;22841;50.252;18.688;2023-04-24T09:11:14;9.32;;;5.20;;
36923;SDS011;22841;50.252;18.688;2023-04-24T09:13:40;9.35;;;5.30;;
36923;SDS011;22841;50.252;18.688;2023-04-24T09:16:06;7.63;;;4.22;;
36923;SDS011;22841;50.252;18.688;2023-04-24T09:18:33;7.82;;;5.43;;
36923;SDS011;22841;50.252;18.688;2023-04-24T09:21:01;24.67;;;5.10;;
36923;SDS011;22841;50.252;18.688;2023-04-24T09:23:29;9.95;;;4.75;;
36923;SDS011;22841;50.252;18.688;2023-04-24T09:25:56;14.98;;;5.20;;
36923;SDS011;22841;50.252;18.688;2023-04-24T09:28:31;9.05;;;4.57;;
36923;SDS011;22841;50.252;18.688;2023-04-24T09:33:56;8.70;;;4.75;;
36923;SDS011;22841;50.252;18.688;2023-04-24T09:36:29;18.90;;;5.03;;
36923;SDS011;22841;50.252;18.688;2023-04-24T09:39:02;16.00;;;4.22;;
36923;SDS011;22841;50.252;18.688;2023-04-24T09:41:31;7.82;;;4.40;;
36923;SDS011;22841;50.252;18.688;2023-04-24T09:44:10;8.80;;;4.63;;
36923;SDS011;22841;50.252;18.688;2023-04-24T09:46:37;7.90;;;4.22;;
36923;SDS011;22841;50.252;18.688;2023-04-24T09:49:07;11.40;;;4.10;;
36923;SDS011;22841;50.252;18.688;2023-04-24T09:54:03;7.05;;;4.10;;
36923;SDS011;22841;50.252;18.688;2023-04-24T09:56:33;9.18;;;4.72;;
36923;SDS011;22841;50.252;18.688;2023-04-24T09:59:06;7.97;;;4.47;;
36923;SDS011;22841;50.252;18.688;2023-04-24T10:01:33;7.72;;;4.35;;
36923;SDS011;22841;50.252;18.688;2023-04-24T10:03:59;10.13;;;4.32;;
36923;SDS011;22841;50.252;18.688;2023-04-24T10:06:35;8.68;;;3.97;;
36923;SDS011;22841;50.252;18.688;2023-04-24T10:09:01;23.02;;;4.65;;
36923;SDS011;22841;50.252;18.688;2023-04-24T10:11:29;9.68;;;4.03;;
36923;SDS011;22841;50.252;18.688;2023-04-24T10:13:56;10.60;;;4.38;;
36923;SDS011;22841;50.252;18.688;2023-04-24T10:16:22;7.03;;;4.28;;
36923;SDS011;22841;50.252;18.688;2023-04-24T10:18:49;14.25;;;5.25;;
36923;SDS011;22841;50.252;18.688;2023-04-24T10:21:16;7.85;;;4.55;;
36923;SDS011;22841;50.252;18.688;2023-04-24T10:23:43;7.75;;;4.50;;
36923;SDS011;22841;50.252;18.688;2023-04-24T10:26:12;6.43;;;5.00;;
36923;SDS011;22841;50.252;18.688;2023-04-24T10:28:46;11.30;;;4.68;;
36923;SDS011;22841;50.252;18.688;2023-04-24T10:31:13;17.67;;;4.93;;
36923;SDS011;22841;50.252;18.688;2023-04-24T10:33:40;5.85;;;4.72;;
36923;SDS011;22841;50.252;18.688;2023-04-24T10:36:09;6.47;;;4.78;;
36923;SDS011;22841;50.252;18.688;2023-04-24T10:38:36;8.20;;;4.53;;
36923;SDS011;22841;50.252;18.688;2023-04-24T10:41:06;19.30;;;5.43;;
36923;SDS011;22841;50.252;18.688;2023-04-24T10:43:41;4.65;;;4.00;;
36923;SDS011;22841;50.252;18.688;2023-04-24T10:46:08;6.78;;;4.88;;
36923;SDS011;22841;50.252;18.688;2023-04-24T10:48:35;6.78;;;5.15;;
36923;SDS011;22841;50.252;18.688;2023-04-24T10:51:10;18.23;;;5.82;;
36923;SDS011;22841;50.252;18.688;2023-04-24T10:53:38;11.57;;;5.20;;
36923;SDS011;22841;50.252;18.688;2023-04-24T10:56:08;12.82;;;5.47;;
36923;SDS011;22841;50.252;18.688;2023-04-24T11:01:30;16.90;;;5.25;;
36923;SDS011;22841;50.252;18.688;2023-04-24T11:03:59;16.55;;;4.85;;
36923;SDS011;22841;50.252;18.688;2023-04-24T11:06:34;22.58;;;6.80;;
36923;SDS011;22841;50.252;18.688;2023-04-24T11:09:08;16.00;;;6.85;;
36923;SDS011;22841;50.252;18.688;2023-04-24T11:11:38;7.80;;;5.30;;
36923;SDS011;22841;50.252;18.688;2023-04-24T11:14:09;10.38;;;5.45;;
36923;SDS011;22841;50.252;18.688;2023-04-24T11:16:38;13.82;;;6.10;;
36923;SDS011;22841;50.252;18.688;2023-04-24T11:26:50;11.00;;;5.47;;
36923;SDS011;22841;50.252;18.688;2023-04-24T11:29:19;12.65;;;5.38;;
36923;SDS011;22841;50.252;18.688;2023-04-24T11:31:47;22.02;;;6.63;;
36923;SDS011;22841;50.252;18.688;2023-04-24T11:34:17;7.22;;;4.95;;
36923;SDS011;22841;50.252;18.688;2023-04-24T11:36:44;22.35;;;6.35;;
36923;SDS011;22841;50.252;18.688;2023-04-24T11:39:11;28.73;;;6.50;;
36923;SDS011;22841;50.252;18.688;2023-04-24T11:41:38;16.23;;;5.25;;
36923;SDS011;22841;50.252;18.688;2023-04-24T11:44:05;8.77;;;5.22;;
36923;SDS011;22841;50.252;18.688;2023-04-24T11:46:32;21.05;;;5.97;;
36923;SDS011;22841;50.252;18.688;2023-04-24T11:48:58;10.57;;;5.85;;
36923;SDS011;22841;50.252;18.688;2023-04-24T11:51:26;14.75;;;5.43;;
36923;SDS011;22841;50.252;18.688;2023-04-24T11:53:53;24.00;;;6.57;;
36923;SDS011;22841;50.252;18.688;2023-04-24T11:56:21;17.67;;;5.53;;
36923;SDS011;22841;50.252;18.688;2023-04-24T11:58:48;16.85;;;5.68;;
36923;SDS011;22841;50.252;18.688;2023-04-24T12:01:17;13.82;;;5.45;;
36923;SDS011;22841;50.252;18.688;2023-04-24T12:03:47;10.73;;;4.80;;
36923;SDS011;22841;50.252;18.688;2023-04-24T12:06:16;39.33;;;6.97;;
36923;SDS011;22841;50.252;18.688;2023-04-24T12:08:45;23.75;;;6.20;;
36923;SDS011;22841;50.252;18.688;2023-04-24T12:11:14;15.73;;;6.18;;
36923;SDS011;22841;50.252;18.688;2023-04-24T12:13:41;11.77;;;5.10;;
36923;SDS011;22841;50.252;18.688;2023-04-24T12:16:08;29.13;;;6.00;;
36923;SDS011;22841;50.252;18.688;2023-04-24T12:18:34;9.80;;;5.53;;
36923;SDS011;22841;50.252;18.688;2023-04-24T12:23:43;10.68;;;5.15;;
36923;SDS011;22841;50.252;18.688;2023-04-24T12:26:11;14.70;;;5.78;;
36923;SDS011;22841;50.252;18.688;2023-04-24T12:28:41;6.80;;;5.00;;
36923;SDS011;22841;50.252;18.688;2023-04-24T12:31:07;11.35;;;5.15;;
36923;SDS011;22841;50.252;18.688;2023-04-24T12:33:33;8.65;;;5.07;;
36923;SDS011;22841;50.252;18.688;2023-04-24T12:36:00;10.85;;;5.13;;
36923;SDS011;22841;50.252;18.688;2023-04-24T12:38:27;11.05;;;6.00;;
36923;SDS011;22841;50.252;18.688;2023-04-24T12:41:05;11.45;;;5.63;;
36923;SDS011;22841;50.252;18.688;2023-04-24T12:43:37;10.75;;;5.43;;
36923;SDS011;22841;50.252;18.688;2023-04-24T12:46:03;8.73;;;5.25;;
36923;SDS011;22841;50.252;18.688;2023-04-24T12:48:30;19.25;;;4.80;;
36923;SDS011;22841;50.252;18.688;2023-04-24T12:50:57;7.82;;;4.95;;
36923;SDS011;22841;50.252;18.688;2023-04-24T12:53:27;20.25;;;5.35;;
36923;SDS011;22841;50.252;18.688;2023-04-24T12:55:55;8.32;;;4.82;;
36923;SDS011;22841;50.252;18.688;2023-04-24T12:58:21;13.68;;;4.72;;
36923;SDS011;22841;50.252;18.688;2023-04-24T13:00:49;12.25;;;5.32;;
36923;SDS011;22841;50.252;18.688;2023-04-24T13:03:15;8.25;;;4.30;;
36923;SDS011;22841;50.252;18.688;2023-04-24T13:05:42;5.93;;;3.83;;
36923;SDS011;22841;50.252;18.688;2023-04-24T13:08:09;10.48;;;4.00;;
36923;SDS011;22841;50.252;18.688;2023-04-24T13:10:35;6.85;;;4.32;;
36923;SDS011;22841;50.252;18.688;2023-04-24T13:13:01;6.00;;;3.97;;
36923;SDS011;22841;50.252;18.688;2023-04-24T13:15:32;6.22;;;4.18;;
36923;SDS011;22841;50.252;18.688;2023-04-24T13:17:58;7.72;;;5.00;;
36923;SDS011;22841;50.252;18.688;2023-04-24T13:20:24;12.07;;;5.45;;
36923;SDS011;22841;50.252;18.688;2023-04-24T13:22:51;25.63;;;6.20;;
36923;SDS011;22841;50.252;18.688;2023-04-24T13:25:17;107.18;;;8.57;;
36923;SDS011;22841;50.252;18.688;2023-04-24T13:27:44;9.45;;;5.38;;
36923;SDS011;22841;50.252;18.688;2023-04-24T13:30:10;7.78;;;4.90;;
36923;SDS011;22841;50.252;18.688;2023-04-24T13:32:37;7.65;;;4.78;;
36923;SDS011;22841;50.252;18.688;2023-04-24T13:35:03;7.53;;;5.55;;
36923;SDS011;22841;50.252;18.688;2023-04-24T13:37:29;7.57;;;5.53;;
36923;SDS011;22841;50.252;18.688;2023-04-24T13:39:55;6.90;;;5.70;;
36923;SDS011;22841;50.252;18.688;2023-04-24T13:42:21;9.98;;;6.25;;
36923;SDS011;22841;50.252;18.688;2023-04-24T13:44:48;7.07;;;5.70;;
36923;SDS011;22841;50.252;18.688;2023-04-24T13:47:14;8.93;;;5.78;;
36923;SDS011;22841;50.252;18.688;2023-04-24T13:49:40;10.85;;;6.35;;
36923;SDS011;22841;50.252;18.688;2023-04-24T13:52:06;8.85;;;5.28;;
36923;SDS011;22841;50.252;18.688;2023-04-24T13:54:32;5.88;;;5.22;;
36923;SDS011;22841;50.252;18.688;2023-04-24T13:56:58;8.15;;;5.25;;
36923;SDS011;22841;50.252;18.688;2023-04-24T13:59:25;7.03;;;4.68;;
36923;SDS011;22841;50.252;18.688;2023-04-24T14:01:52;7.60;;;5.25;;
36923;SDS011;22841;50.252;18.688;2023-04-24T14:04:18;35.78;;;7.13;;
36923;SDS011;22841;50.252;18.688;2023-04-24T14:06:44;11.93;;;5.57;;
36923;SDS011;22841;50.252;18.688;2023-04-24T14:09:10;8.05;;;5.57;;
36923;SDS011;22841;50.252;18.688;2023-04-24T14:11:36;13.80;;;5.30;;
36923;SDS011;22841;50.252;18.688;2023-04-24T14:14:02;8.73;;;5.20;;
36923;SDS011;22841;50.252;18.688;2023-04-24T14:16:28;7.38;;;5.57;;
36923;SDS011;22841;50.252;18.688;2023-04-24T14:18:55;16.15;;;6.03;;
36923;SDS011;22841;50.252;18.688;2023-04-24T14:21:21;10.63;;;5.80;;
36923;SDS011;22841;50.252;18.688;2023-04-24T14:23:48;9.57;;;5.95;;
36923;SDS011;22841;50.252;18.688;2023-04-24T14:26:14;8.00;;;6.18;;
36923;SDS011;22841;50.252;18.688;2023-04-24T14:28:40;11.80;;;6.75;;
36923;SDS011;22841;50.252;18.688;2023-04-24T14:31:06;14.35;;;6.60;;
36923;SDS011;22841;50.252;18.688;2023-04-24T14:33:33;8.45;;;5.45;;
36923;SDS011;22841;50.252;18.688;2023-04-24T14:35:59;11.68;;;7.55;;